Time;durP1;ratioP1;P1;durP2;ratioP2;P2;SDS_P1;SDS_P2;PMS_P1;PMS_P2;Temp;Humidity;BMP_temperature;BMP_pressure;BME280_temperature;BME280_humidity;BME280_pressure;Samples;Min_cycle;Max_cycle;Signal;HPM_P1;HPM_P2
2022/03/20 00:02:06;;;;;;;8.38;3.95;;;9.40;90.00;;;;;;4951449;28;20494;-68
2022/03/20 00:04:31;;;;;;;9.15;3.75;;;9.40;89.90;;;;;;4951829;28;20034;-68
2022/03/20 00:06:59;;;;;;;9.15;3.30;;;9.40;89.90;;;;;;4940231;28;20047;-68
2022/03/20 00:09:24;;;;;;;14.48;3.80;;;9.40;90.00;;;;;;4939142;28;20032;-68
2022/03/20 00:11:50;;;;;;;6.78;3.85;;;9.30;89.90;;;;;;4951791;28;20118;-68
2022/03/20 00:14:16;;;;;;;7.10;3.33;;;9.30;90.00;;;;;;4951074;28;20039;-68
2022/03/20 00:16:41;;;;;;;9.55;3.72;;;9.30;90.00;;;;;;4940812;28;20137;-68
2022/03/20 00:19:07;;;;;;;6.60;2.25;;;9.40;90.20;;;;;;4938228;28;20078;-68
2022/03/20 00:21:34;;;;;;;7.80;3.20;;;9.30;90.10;;;;;;4955374;28;20027;-68
2022/03/20 00:24:00;;;;;;;6.72;3.70;;;9.30;90.10;;;;;;4939460;28;20639;-68
2022/03/20 00:26:25;;;;;;;9.05;3.78;;;9.30;90.00;;;;;;4951746;28;20034;-68
2022/03/20 00:28:51;;;;;;;9.05;3.17;;;9.30;90.10;;;;;;4939605;28;20028;-68
2022/03/20 00:31:19;;;;;;;6.57;3.20;;;9.30;90.00;;;;;;4942887;29;20447;-68
2022/03/20 00:33:45;;;;;;;7.43;3.70;;;9.30;90.00;;;;;;4934811;28;20024;-68
2022/03/20 00:36:11;;;;;;;6.00;3.35;;;9.30;90.10;;;;;;4952182;28;20056;-68
2022/03/20 00:38:36;;;;;;;8.13;3.88;;;9.20;90.10;;;;;;4951355;28;20027;-68
2022/03/20 00:41:02;;;;;;;8.48;3.20;;;9.20;90.00;;;;;;4951383;28;20395;-68
2022/03/20 00:43:28;;;;;;;6.50;2.85;;;9.20;90.00;;;;;;4935535;28;20097;-68
2022/03/20 00:45:53;;;;;;;4.53;2.85;;;9.20;90.10;;;;;;4942074;28;20038;-68
2022/03/20 00:48:20;;;;;;;2.85;1.88;;;9.20;90.20;;;;;;4950245;28;20085;-68
2022/03/20 00:50:46;;;;;;;4.78;2.78;;;9.20;90.20;;;;;;4944231;28;20035;-68
2022/03/20 00:53:12;;;;;;;8.35;3.92;;;9.20;90.30;;;;;;4947573;28;20039;-68
2022/03/20 00:55:38;;;;;;;6.60;2.20;;;9.10;90.40;;;;;;4951849;28;20130;-68
2022/03/20 00:58:04;;;;;;;9.70;4.13;;;9.10;90.50;;;;;;4936555;28;20110;-67
2022/03/20 01:00:32;;;;;;;12.05;3.80;;;9.10;90.50;;;;;;4942339;28;20502;-68
2022/03/20 01:02:59;;;;;;;6.63;3.25;;;9.00;90.40;;;;;;4951681;28;20031;-68
2022/03/20 01:05:25;;;;;;;7.85;3.47;;;9.00;90.20;;;;;;4944376;28;20075;-68
2022/03/20 01:07:50;;;;;;;10.48;3.88;;;9.00;90.40;;;;;;4945428;28;20039;-68
2022/03/20 01:10:19;;;;;;;7.80;3.78;;;9.00;90.30;;;;;;4951509;28;20381;-68
2022/03/20 01:12:46;;;;;;;7.88;3.75;;;8.90;90.20;;;;;;4938668;28;20039;-68
2022/03/20 01:15:12;;;;;;;8.45;3.42;;;9.00;90.60;;;;;;4968006;28;20043;-68
2022/03/20 01:17:39;;;;;;;8.93;4.78;;;8.90;90.40;;;;;;4990011;28;20046;-68
2022/03/20 01:20:05;;;;;;;15.48;5.22;;;8.90;90.40;;;;;;4959212;28;20494;-68
2022/03/20 01:22:31;;;;;;;9.23;4.15;;;8.90;90.40;;;;;;4950712;28;20043;-68
2022/03/20 01:25:00;;;;;;;11.15;4.43;;;8.90;90.40;;;;;;4987921;28;20035;-68
2022/03/20 01:27:33;;;;;;;10.30;2.97;;;8.80;90.40;;;;;;4951169;28;20058;-68
2022/03/20 01:29:59;;;;;;;7.40;3.47;;;8.80;90.50;;;;;;4951011;28;20038;-68
2022/03/20 01:32:26;;;;;;;11.45;4.72;;;8.80;90.60;;;;;;4958330;28;20031;-68
2022/03/20 01:34:52;;;;;;;9.00;4.15;;;8.70;90.50;;;;;;4939710;28;20039;-68
2022/03/20 01:37:18;;;;;;;4.40;2.45;;;8.80;90.40;;;;;;4938778;28;20047;-68
2022/03/20 01:39:45;;;;;;;4.80;2.33;;;8.70;90.70;;;;;;4944431;28;20035;-68
2022/03/20 01:42:10;;;;;;;10.40;4.75;;;8.70;90.50;;;;;;4950299;28;20102;-68
2022/03/20 01:44:36;;;;;;;11.35;5.00;;;8.70;90.50;;;;;;4945182;28;20168;-68
2022/03/20 01:47:05;;;;;;;11.50;4.65;;;8.60;90.30;;;;;;4932111;28;20051;-68
2022/03/20 01:49:30;;;;;;;8.93;4.13;;;8.60;90.20;;;;;;4942332;28;20109;-68
2022/03/20 01:52:13;;;;;;;9.60;5.25;;;8.60;90.20;;;;;;4932003;28;20483;-68
2022/03/20 01:54:44;;;;;;;12.80;4.90;;;8.60;90.20;;;;;;4946393;28;20032;-68
2022/03/20 01:57:20;;;;;;;13.77;5.95;;;8.60;90.10;;;;;;4947771;28;20517;-68
2022/03/20 01:59:46;;;;;;;14.38;5.03;;;8.60;90.10;;;;;;4950269;28;20058;-68
2022/03/20 02:02:12;;;;;;;13.00;4.63;;;8.50;90.00;;;;;;4950308;28;20031;-68
2022/03/20 02:04:38;;;;;;;10.95;4.65;;;8.50;90.00;;;;;;4949403;28;20518;-68
2022/03/20 02:07:05;;;;;;;11.32;5.03;;;8.50;90.10;;;;;;4942317;28;20040;-68
2022/03/20 02:09:31;;;;;;;10.68;5.78;;;8.40;90.00;;;;;;4945065;28;20124;-68
2022/03/20 02:11:59;;;;;;;13.48;5.13;;;8.40;90.20;;;;;;4941167;28;20039;-68
2022/03/20 02:14:25;;;;;;;19.45;5.68;;;8.50;90.20;;;;;;4945930;28;20036;-68
2022/03/20 02:16:52;;;;;;;12.02;5.15;;;8.50;90.30;;;;;;4950116;28;20050;-68
2022/03/20 02:19:18;;;;;;;7.43;4.70;;;8.40;90.20;;;;;;4936889;28;20035;-68
2022/03/20 02:21:46;;;;;;;12.23;5.40;;;8.40;90.20;;;;;;4951601;28;20039;-67
2022/03/20 02:24:32;;;;;;;12.43;5.63;;;8.40;90.20;;;;;;4994325;28;20027;-68
2022/03/20 02:27:17;;;;;;;12.95;5.00;;;8.40;90.20;;;;;;4930697;28;20032;-68
2022/03/20 02:29:46;;;;;;;13.07;5.13;;;8.30;90.10;;;;;;4940412;28;20783;-67
2022/03/20 02:32:16;;;;;;;13.00;4.25;;;8.30;90.10;;;;;;4943609;28;20096;-67
2022/03/20 02:34:45;;;;;;;8.57;4.68;;;8.20;90.00;;;;;;4949264;28;20509;-67
2022/03/20 02:37:11;;;;;;;2.92;1.92;;;8.20;90.00;;;;;;4949365;28;20046;-68
2022/03/20 02:39:37;;;;;;;9.75;4.05;;;8.20;90.20;;;;;;4948993;28;20035;-68
2022/03/20 02:42:07;;;;;;;13.43;5.50;;;8.20;90.30;;;;;;4948603;28;20039;-68
2022/03/20 02:44:58;;;;;;;7.28;3.92;;;8.20;90.20;;;;;;4939030;28;20036;-68
2022/03/20 02:47:25;;;;;;;5.00;3.35;;;8.20;90.40;;;;;;4930997;28;20031;-68
2022/03/20 02:50:00;;;;;;;7.95;4.18;;;8.20;90.50;;;;;;4935892;28;20425;-68
2022/03/20 02:52:31;;;;;;;13.77;5.85;;;8.10;90.40;;;;;;4948764;28;20031;-68
2022/03/20 02:55:03;;;;;;;18.67;6.35;;;8.10;90.40;;;;;;4947176;28;20558;-68
2022/03/20 02:57:32;;;;;;;11.60;5.28;;;8.10;90.40;;;;;;4939589;29;20027;-67
2022/03/20 03:00:00;;;;;;;10.32;4.82;;;8.10;90.50;;;;;;4913301;28;1048017;-67
2022/03/20 03:02:30;;;;;;;11.73;5.13;;;8.10;90.80;;;;;;4948959;28;20126;-68
2022/03/20 03:05:02;;;;;;;9.27;5.30;;;8.10;90.70;;;;;;4944199;28;20738;-67
2022/03/20 03:07:30;;;;;;;11.60;5.78;;;8.10;90.70;;;;;;4940015;28;20077;-68
2022/03/20 03:12:41;;;;;;;7.38;3.38;;;8.00;90.80;;;;;;4949013;28;20035;-68
2022/03/20 03:15:19;;;;;;;16.80;6.22;;;8.00;90.90;;;;;;4942334;28;20023;-68
2022/03/20 03:17:45;;;;;;;14.38;6.63;;;8.00;90.70;;;;;;4945721;28;20036;-68
2022/03/20 03:20:11;;;;;;;19.15;8.15;;;8.00;90.60;;;;;;4940589;28;20036;-67
2022/03/20 03:22:37;;;;;;;16.30;6.65;;;7.90;90.60;;;;;;4947114;28;20073;-68
2022/03/20 03:25:04;;;;;;;16.58;5.90;;;8.00;90.50;;;;;;5000326;28;20739;-68
2022/03/20 03:27:30;;;;;;;17.75;7.00;;;7.90;90.50;;;;;;4946824;28;20093;-68
2022/03/20 03:29:55;;;;;;;13.30;6.72;;;7.90;90.60;;;;;;5006429;28;20032;-68
2022/03/20 03:32:21;;;;;;;14.75;5.82;;;7.80;90.30;;;;;;4976567;28;20041;-67
2022/03/20 03:37:32;;;;;;;15.27;7.38;;;7.90;90.50;;;;;;5001725;28;20064;-68
2022/03/20 03:40:02;;;;;;;10.55;5.32;;;7.80;90.30;;;;;;4937379;28;20035;-68
2022/03/20 03:42:30;;;;;;;20.33;7.45;;;7.80;90.50;;;;;;4935063;28;20044;-68
2022/03/20 03:44:58;;;;;;;17.23;6.97;;;7.80;90.60;;;;;;4951068;28;20035;-68
2022/03/20 03:47:24;;;;;;;12.32;6.75;;;7.70;90.60;;;;;;4969297;28;20039;-67
2022/03/20 03:49:50;;;;;;;16.58;7.25;;;7.70;90.60;;;;;;4947759;28;20031;-68
2022/03/20 03:52:16;;;;;;;12.52;6.88;;;7.70;90.70;;;;;;4949622;28;20047;-67
2022/03/20 03:54:42;;;;;;;15.30;7.55;;;7.60;90.70;;;;;;4949347;28;20036;-67
2022/03/20 03:57:08;;;;;;;15.45;6.68;;;7.60;90.80;;;;;;4950626;28;20130;-67
2022/03/20 03:59:34;;;;;;;10.85;6.15;;;7.60;91.00;;;;;;4946834;28;20052;-68
2022/03/20 04:02:00;;;;;;;12.70;6.35;;;7.60;90.90;;;;;;4957943;28;20383;-67
2022/03/20 04:04:27;;;;;;;11.77;5.93;;;7.60;91.10;;;;;;4997871;28;20039;-68
2022/03/20 04:06:54;;;;;;;13.73;5.93;;;7.60;90.90;;;;;;4950847;28;20031;-68
2022/03/20 04:09:20;;;;;;;13.98;7.07;;;7.50;91.00;;;;;;4952608;29;20043;-68
2022/03/20 04:11:46;;;;;;;19.10;8.45;;;7.50;91.00;;;;;;4951599;28;20039;-68
2022/03/20 04:14:11;;;;;;;12.98;5.38;;;7.50;90.90;;;;;;4951686;28;20142;-68
2022/03/20 04:16:37;;;;;;;13.32;6.15;;;7.40;90.90;;;;;;4950706;28;20039;-68
2022/03/20 04:19:03;;;;;;;13.38;6.80;;;7.40;91.00;;;;;;4952411;28;20035;-67
2022/03/20 04:21:29;;;;;;;12.18;6.43;;;7.40;90.80;;;;;;4951201;28;20027;-68
2022/03/20 04:23:55;;;;;;;11.98;6.70;;;7.40;90.70;;;;;;5005441;28;20025;-68
2022/03/20 04:26:22;;;;;;;15.23;7.65;;;7.40;91.10;;;;;;4957252;28;20049;-68
2022/03/20 04:28:49;;;;;;;14.80;7.03;;;7.40;91.10;;;;;;4939957;28;20036;-67
2022/03/20 04:31:15;;;;;;;12.68;6.97;;;7.30;91.10;;;;;;4951350;28;20031;-69
2022/03/20 04:33:43;;;;;;;16.15;5.57;;;7.30;90.90;;;;;;4951764;28;20177;-68
2022/03/20 04:36:09;;;;;;;14.93;7.60;;;7.40;91.60;;;;;;4946886;28;20082;-68
2022/03/20 04:38:38;;;;;;;15.50;7.88;;;7.30;91.50;;;;;;4951418;28;20417;-68
2022/03/20 04:41:05;;;;;;;22.05;7.38;;;7.30;91.30;;;;;;4953379;28;20043;-68
2022/03/20 04:43:31;;;;;;;9.00;5.05;;;7.30;91.30;;;;;;4952239;28;20096;-67
2022/03/20 04:45:57;;;;;;;12.20;6.72;;;7.30;91.30;;;;;;4951354;28;20542;-67
2022/03/20 04:59:21;;;;;;;11.65;6.00;;;7.30;91.20;;;;;;4951051;28;20422;-67
2022/03/20 05:01:47;;;;;;;6.57;3.25;;;7.20;91.20;;;;;;4951561;28;20122;-67
2022/03/20 05:04:15;;;;;;;16.65;8.23;;;7.20;91.30;;;;;;4951711;28;20413;-68
2022/03/20 05:06:43;;;;;;;17.45;8.27;;;7.30;91.20;;;;;;4950705;28;20188;-67
2022/03/20 05:14:37;;;;;;;18.25;7.50;;;7.20;90.90;;;;;;4948523;28;20035;-67
2022/03/20 05:17:04;;;;;;;13.32;6.75;;;7.10;90.80;;;;;;4951785;28;20081;-67
2022/03/20 05:19:33;;;;;;;16.25;7.65;;;7.10;91.00;;;;;;4951406;28;20023;-67
2022/03/20 05:21:58;;;;;;;9.10;4.60;;;7.10;90.90;;;;;;4951054;28;20032;-67
2022/03/20 05:24:24;;;;;;;15.43;8.57;;;7.10;91.00;;;;;;4995741;28;20035;-67
2022/03/20 05:26:50;;;;;;;12.68;6.55;;;7.10;91.20;;;;;;4949808;28;20077;-68
2022/03/20 05:29:15;;;;;;;18.38;9.50;;;7.00;90.90;;;;;;4951294;28;20031;-67
2022/03/20 05:31:41;;;;;;;17.05;9.80;;;7.00;90.80;;;;;;4951569;28;20074;-67
2022/03/20 05:34:07;;;;;;;18.95;8.40;;;7.00;90.80;;;;;;4950404;28;20028;-67
2022/03/20 05:36:32;;;;;;;22.80;9.85;;;7.00;91.00;;;;;;4976602;28;20535;-67
2022/03/20 05:38:59;;;;;;;18.70;8.88;;;6.90;91.00;;;;;;4967516;28;20061;-67
2022/03/20 05:41:45;;;;;;;19.35;9.40;;;6.90;90.80;;;;;;4950365;28;20034;-67
2022/03/20 05:44:15;;;;;;;17.88;8.90;;;6.90;90.50;;;;;;4938828;28;20114;-67
2022/03/20 05:46:42;;;;;;;18.10;9.30;;;6.80;90.80;;;;;;4941525;28;20077;-67
2022/03/20 05:49:07;;;;;;;21.80;8.98;;;6.80;90.90;;;;;;4950112;28;20138;-67
2022/03/20 05:51:37;;;;;;;15.65;8.30;;;6.80;90.80;;;;;;4940238;28;20692;-67
2022/03/20 05:54:04;;;;;;;13.20;7.63;;;6.80;90.60;;;;;;4950018;28;20036;-67
2022/03/20 05:59:14;;;;;;;10.32;5.97;;;6.80;90.90;;;;;;4925248;28;20056;-68
2022/03/20 06:01:40;;;;;;;15.73;8.40;;;6.80;90.90;;;;;;4938290;28;20032;-67
2022/03/20 06:04:06;;;;;;;15.75;8.75;;;6.80;90.80;;;;;;4948607;28;20138;-67
2022/03/20 06:06:32;;;;;;;17.60;8.80;;;6.80;91.00;;;;;;4980127;28;20070;-68
2022/03/20 06:08:58;;;;;;;18.17;9.80;;;6.80;91.00;;;;;;5006592;28;20125;-67
2022/03/20 06:11:24;;;;;;;15.35;7.30;;;6.80;90.80;;;;;;5017658;28;20037;-67
2022/03/20 06:13:49;;;;;;;15.15;8.80;;;6.70;91.00;;;;;;5017114;28;20056;-67
2022/03/20 06:16:16;;;;;;;17.30;7.32;;;6.70;91.20;;;;;;5026824;28;20041;-67
2022/03/20 06:18:48;;;;;;;15.82;8.32;;;6.70;91.20;;;;;;4984519;28;20031;-67
2022/03/20 06:21:14;;;;;;;18.35;9.48;;;6.70;91.00;;;;;;4991612;28;20061;-67
2022/03/20 06:23:40;;;;;;;17.63;9.25;;;6.70;91.30;;;;;;5030327;28;20064;-67
2022/03/20 06:26:07;;;;;;;17.35;7.75;;;6.70;91.30;;;;;;4964652;28;20478;-67
2022/03/20 06:28:33;;;;;;;15.93;7.53;;;6.70;91.50;;;;;;4950020;28;20046;-67
2022/03/20 06:30:59;;;;;;;24.65;10.43;;;6.70;91.40;;;;;;4946583;28;20035;-67
2022/03/20 06:33:25;;;;;;;12.05;6.07;;;6.70;91.30;;;;;;4964566;28;20025;-67
2022/03/20 06:35:52;;;;;;;16.90;10.13;;;6.70;91.60;;;;;;4970640;28;20415;-67
2022/03/20 06:38:18;;;;;;;19.95;9.65;;;6.70;91.50;;;;;;5003058;28;20112;-67
2022/03/20 06:40:47;;;;;;;16.73;10.10;;;6.60;91.60;;;;;;5012277;28;20031;-67
2022/03/20 06:43:14;;;;;;;16.17;7.75;;;6.60;91.60;;;;;;4948637;28;20064;-67
2022/03/20 06:45:41;;;;;;;16.85;9.13;;;6.70;91.80;;;;;;4981558;28;20031;-67
2022/03/20 06:48:10;;;;;;;19.20;9.82;;;6.70;91.70;;;;;;4984681;28;20044;-67
2022/03/20 06:50:36;;;;;;;21.00;10.57;;;6.70;91.50;;;;;;4986815;28;20443;-66
2022/03/20 06:53:04;;;;;;;16.92;8.15;;;6.70;91.70;;;;;;5000491;28;20036;-67
2022/03/20 06:55:31;;;;;;;22.92;10.10;;;6.70;91.90;;;;;;4991955;28;20033;-67
2022/03/20 06:57:58;;;;;;;17.42;8.90;;;6.70;91.70;;;;;;4999067;28;20037;-67
2022/03/20 07:00:26;;;;;;;17.20;8.07;;;6.80;91.70;;;;;;4999709;28;20140;-67
2022/03/20 07:03:00;;;;;;;18.88;10.35;;;6.80;91.80;;;;;;4986522;28;20134;-67
2022/03/20 07:05:27;;;;;;;18.58;9.93;;;6.80;91.70;;;;;;5009276;28;20045;-66
2022/03/20 07:07:53;;;;;;;24.42;10.52;;;6.80;91.60;;;;;;5014326;28;20420;-66
2022/03/20 07:10:24;;;;;;;13.52;6.47;;;6.80;91.40;;;;;;5003244;28;20098;-67
2022/03/20 07:12:51;;;;;;;13.63;6.72;;;6.80;91.70;;;;;;4998051;28;20494;-67
2022/03/20 07:15:19;;;;;;;15.30;8.80;;;6.80;91.50;;;;;;5007459;28;20021;-68
2022/03/20 07:17:47;;;;;;;15.00;8.25;;;6.80;91.50;;;;;;5007410;28;20034;-67
2022/03/20 07:20:15;;;;;;;25.08;11.13;;;6.80;91.40;;;;;;5006149;28;20037;-68
2022/03/20 07:22:41;;;;;;;22.20;10.23;;;6.80;91.40;;;;;;4961261;28;20110;-67
2022/03/20 07:30:37;;;;;;;10.00;4.75;;;6.80;91.50;;;;;;4952586;28;20114;-67
2022/03/20 07:33:03;;;;;;;17.90;6.32;;;6.90;91.60;;;;;;4946359;28;20165;-67
2022/03/20 07:35:29;;;;;;;19.75;9.77;;;7.00;91.80;;;;;;4947098;28;20055;-66
2022/03/20 07:37:54;;;;;;;14.38;7.47;;;6.90;91.80;;;;;;4942741;28;20032;-66
2022/03/20 07:40:22;;;;;;;21.10;10.50;;;6.90;91.90;;;;;;4942502;28;20032;-67
2022/03/20 07:42:47;;;;;;;17.70;8.52;;;6.90;91.70;;;;;;4946497;28;20044;-66
2022/03/20 07:45:13;;;;;;;11.93;7.28;;;7.00;91.70;;;;;;4950550;28;20038;-66
2022/03/20 07:47:39;;;;;;;19.40;7.45;;;7.00;91.90;;;;;;4957414;28;20114;-66
2022/03/20 07:50:07;;;;;;;11.90;6.38;;;7.00;91.90;;;;;;4946828;28;20054;-66
2022/03/20 07:52:35;;;;;;;12.68;7.93;;;6.90;92.00;;;;;;4945343;28;20403;-67
2022/03/20 07:55:01;;;;;;;15.25;7.72;;;6.90;92.00;;;;;;4960252;28;20058;-66
2022/03/20 07:57:28;;;;;;;17.25;8.02;;;7.00;92.10;;;;;;4946890;28;20039;-66
2022/03/20 07:59:54;;;;;;;18.20;9.77;;;7.00;92.30;;;;;;4949123;28;20055;-66
2022/03/20 08:02:20;;;;;;;10.98;5.82;;;7.00;91.70;;;;;;4957035;28;20042;-66
2022/03/20 08:04:46;;;;;;;16.10;6.93;;;7.00;92.00;;;;;;4956616;28;20046;-65
2022/03/20 08:07:12;;;;;;;14.20;6.82;;;7.00;92.10;;;;;;4957617;28;20031;-66
2022/03/20 08:09:38;;;;;;;16.20;7.72;;;7.10;92.30;;;;;;4961460;28;20559;-66
2022/03/20 08:12:06;;;;;;;13.85;8.05;;;7.10;92.10;;;;;;4950262;28;20579;-68
2022/03/20 08:14:31;;;;;;;22.58;10.13;;;7.10;92.20;;;;;;4948390;28;20185;-66
2022/03/20 08:16:57;;;;;;;18.02;7.82;;;7.10;92.00;;;;;;4948397;28;20161;-67
2022/03/20 08:19:24;;;;;;;8.18;4.03;;;7.10;92.30;;;;;;4948978;28;20027;-66
2022/03/20 08:21:51;;;;;;;19.05;8.27;;;7.10;92.50;;;;;;4965475;28;20083;-67
2022/03/20 08:24:23;;;;;;;20.42;10.63;;;7.10;92.60;;;;;;4956911;28;20427;-66
2022/03/20 08:26:51;;;;;;;10.80;6.25;;;7.20;92.40;;;;;;4947125;28;20051;-66
2022/03/20 08:29:17;;;;;;;19.00;8.98;;;7.30;92.40;;;;;;4949843;28;20035;-66
2022/03/20 08:31:47;;;;;;;22.17;11.00;;;7.30;92.50;;;;;;4945982;28;20040;-66
2022/03/20 08:34:16;;;;;;;12.35;6.93;;;7.30;92.20;;;;;;4960854;28;20039;-66
2022/03/20 08:36:44;;;;;;;15.18;7.95;;;7.40;92.40;;;;;;4946986;28;20035;-66
2022/03/20 08:39:10;;;;;;;8.30;4.95;;;7.40;92.40;;;;;;4949050;28;20078;-67
2022/03/20 08:41:36;;;;;;;10.07;5.15;;;7.40;92.40;;;;;;4948890;28;20031;-66
2022/03/20 08:44:04;;;;;;;13.73;7.03;;;7.50;92.40;;;;;;4948229;28;20840;-67
2022/03/20 08:46:31;;;;;;;15.32;6.95;;;7.50;92.60;;;;;;4943356;28;20085;-67
2022/03/20 08:48:57;;;;;;;12.10;6.38;;;7.50;92.70;;;;;;4959831;28;20542;-67
2022/03/20 08:51:24;;;;;;;8.00;2.80;;;7.60;92.70;;;;;;4960633;28;20035;-67
2022/03/20 08:53:50;;;;;;;9.50;4.57;;;7.70;92.70;;;;;;4953836;28;20031;-67
2022/03/20 08:56:16;;;;;;;18.65;9.43;;;7.70;92.70;;;;;;4950213;28;20459;-67
2022/03/20 08:58:42;;;;;;;15.25;6.95;;;7.70;92.60;;;;;;4978125;28;20531;-67
2022/03/20 09:01:07;;;;;;;13.18;7.13;;;7.70;92.70;;;;;;4972687;28;20450;-67
2022/03/20 09:03:33;;;;;;;6.68;3.35;;;7.80;92.70;;;;;;5006559;28;20039;-66
2022/03/20 09:05:59;;;;;;;17.15;8.70;;;7.70;92.80;;;;;;5003495;28;20128;-66
2022/03/20 09:08:24;;;;;;;19.90;9.35;;;7.80;92.80;;;;;;4995625;28;20138;-67
2022/03/20 09:10:51;;;;;;;20.58;9.15;;;7.80;92.90;;;;;;5009805;28;20033;-66
2022/03/20 09:13:17;;;;;;;16.17;8.13;;;7.80;93.00;;;;;;4991892;28;20035;-70
2022/03/20 09:15:43;;;;;;;12.45;6.43;;;7.90;93.20;;;;;;4991631;28;20090;-68
2022/03/20 09:20:55;;;;;;;;;;;7.90;93.30;;;;;;4943178;28;20035;-68
2022/03/20 09:23:21;;;;;;;16.05;8.27;;;8.00;93.30;;;;;;4986578;28;19964;-68
2022/03/20 09:25:46;;;;;;;16.88;7.40;;;7.90;93.20;;;;;;4957744;28;20035;-70
2022/03/20 09:28:12;;;;;;;17.45;7.88;;;7.90;93.30;;;;;;4962083;28;20051;-68
2022/03/20 09:30:40;;;;;;;14.73;8.55;;;8.00;93.30;;;;;;4948523;28;20110;-66
2022/03/20 09:33:08;;;;;;;12.57;6.38;;;8.00;93.30;;;;;;4947815;28;20418;-72
2022/03/20 09:35:34;;;;;;;18.20;8.20;;;8.10;93.40;;;;;;4964997;28;20043;-67
2022/03/20 09:38:02;;;;;;;11.15;5.95;;;8.10;93.30;;;;;;4953451;28;20086;-68
2022/03/20 09:40:30;;;;;;;16.15;9.43;;;8.10;93.40;;;;;;4969948;28;20610;-68
2022/03/20 09:42:56;;;;;;;12.63;6.60;;;8.20;93.30;;;;;;4950104;28;20081;-67
2022/03/20 09:45:22;;;;;;;13.82;8.02;;;8.20;93.40;;;;;;4947107;28;20028;-67
2022/03/20 09:47:48;;;;;;;15.10;8.30;;;8.30;93.40;;;;;;4946483;28;20043;-68
2022/03/20 09:50:15;;;;;;;20.85;8.35;;;8.30;93.50;;;;;;4971812;28;20058;-67
2022/03/20 09:52:42;;;;;;;15.90;8.05;;;8.30;93.50;;;;;;4960438;28;20045;-67
2022/03/20 09:55:10;;;;;;;11.95;7.00;;;8.40;93.40;;;;;;4959505;28;20047;-67
2022/03/20 09:57:35;;;;;;;11.80;5.93;;;8.40;93.40;;;;;;4949536;28;20043;-67
2022/03/20 10:00:05;;;;;;;19.50;9.55;;;8.50;93.40;;;;;;4953603;28;20093;-67
2022/03/20 10:02:31;;;;;;;20.80;11.75;;;8.50;93.10;;;;;;4962992;28;20123;-67
2022/03/20 10:05:04;;;;;;;16.10;9.10;;;8.50;93.30;;;;;;4987663;28;20114;-67
2022/03/20 10:07:33;;;;;;;10.98;6.88;;;8.60;93.40;;;;;;4990159;28;20415;-67
2022/03/20 10:10:10;;;;;;;16.17;5.72;;;8.60;93.40;;;;;;4976251;28;20044;-67
2022/03/20 10:12:37;;;;;;;12.45;5.50;;;8.60;93.40;;;;;;4955842;28;20108;-67
2022/03/20 10:15:05;;;;;;;32.85;10.73;;;8.70;93.40;;;;;;4995533;28;20076;-67
2022/03/20 10:17:31;;;;;;;19.85;10.40;;;8.70;93.20;;;;;;5001758;28;20119;-67
2022/03/20 10:20:14;;;;;;;14.55;7.00;;;8.80;93.20;;;;;;5012251;28;20041;-67
2022/03/20 10:22:40;;;;;;;22.70;11.65;;;8.80;93.10;;;;;;4982499;28;20127;-67
2022/03/20 10:25:11;;;;;;;18.70;9.35;;;8.80;93.20;;;;;;4982325;28;20471;-67
2022/03/20 10:27:39;;;;;;;14.98;6.80;;;8.90;93.30;;;;;;4967295;28;20051;-69
2022/03/20 10:30:08;;;;;;;16.92;8.27;;;8.90;93.30;;;;;;4964228;28;20093;-69
2022/03/20 10:32:35;;;;;;;17.35;8.90;;;8.90;93.20;;;;;;5018692;28;20029;-69
2022/03/20 10:35:09;;;;;;;15.23;7.60;;;8.90;93.20;;;;;;5004934;28;20037;-69
2022/03/20 10:37:56;;;;;;;13.70;7.07;;;9.00;93.20;;;;;;4980909;28;20067;-70
2022/03/20 10:40:28;;;;;;;19.33;8.50;;;9.00;93.30;;;;;;5018870;28;20029;-70
2022/03/20 10:43:16;;;;;;;19.80;11.10;;;9.00;93.10;;;;;;5014965;28;20382;-70
2022/03/20 10:46:01;;;;;;;10.20;5.30;;;9.10;93.00;;;;;;4982791;28;20033;-70
2022/03/20 10:48:34;;;;;;;16.65;9.55;;;9.10;93.10;;;;;;4947681;28;20031;-69
2022/03/20 10:51:00;;;;;;;21.08;10.25;;;9.10;93.00;;;;;;4972705;28;20035;-69
2022/03/20 10:53:25;;;;;;;16.33;8.57;;;9.20;93.10;;;;;;4981643;28;20035;-69
2022/03/20 10:55:56;;;;;;;19.42;8.80;;;9.30;93.40;;;;;;5008530;28;20033;-67
2022/03/20 10:58:26;;;;;;;21.50;9.27;;;9.30;93.10;;;;;;4994247;28;20034;-66
2022/03/20 11:00:53;;;;;;;24.88;11.05;;;9.40;93.10;;;;;;4979103;28;20043;-67
2022/03/20 11:03:22;;;;;;;19.85;9.18;;;9.40;93.20;;;;;;4937552;28;20502;-67
2022/03/20 11:05:50;;;;;;;16.80;8.02;;;9.40;93.10;;;;;;4971401;28;20106;-67
2022/03/20 11:08:19;;;;;;;15.55;8.77;;;9.50;93.10;;;;;;4981661;28;20540;-67
2022/03/20 11:10:48;;;;;;;15.43;8.63;;;9.50;93.10;;;;;;4940739;28;20059;-70
2022/03/20 11:13:21;;;;;;;16.38;8.38;;;9.60;93.00;;;;;;4952777;28;20059;-67
2022/03/20 11:15:48;;;;;;;14.43;7.57;;;9.60;93.00;;;;;;4984159;28;20472;-67
2022/03/20 11:18:15;;;;;;;31.83;16.02;;;9.70;92.80;;;;;;4974767;28;20043;-67
2022/03/20 11:20:45;;;;;;;19.42;9.15;;;9.70;92.20;;;;;;4950923;28;20040;-67
2022/03/20 11:23:14;;;;;;;16.95;9.32;;;9.80;92.60;;;;;;4964012;28;20023;-67
2022/03/20 11:25:43;;;;;;;19.58;8.75;;;9.80;92.50;;;;;;4964274;28;20487;-66
2022/03/20 11:28:11;;;;;;;19.13;9.70;;;9.80;92.90;;;;;;4956595;28;20028;-71
2022/03/20 11:30:38;;;;;;;21.08;9.07;;;9.80;92.40;;;;;;4957910;28;20043;-67
2022/03/20 11:33:06;;;;;;;19.58;10.77;;;9.90;92.50;;;;;;4950653;28;20036;-67
2022/03/20 11:35:35;;;;;;;15.63;7.32;;;10.00;92.60;;;;;;4946034;28;20048;-67
2022/03/20 11:38:14;;;;;;;11.30;6.50;;;10.00;92.80;;;;;;4934475;28;20487;-69
2022/03/20 11:40:42;;;;;;;12.13;6.63;;;10.00;92.90;;;;;;4951328;28;20468;-73
2022/03/20 11:43:22;;;;;;;21.55;9.07;;;10.00;92.80;;;;;;4952309;28;20034;-67
2022/03/20 11:46:11;;;;;;;23.25;12.88;;;10.00;92.80;;;;;;4933695;29;20101;-67
2022/03/20 11:48:37;;;;;;;24.92;9.85;;;10.10;92.40;;;;;;4959799;28;20050;-68
2022/03/20 11:51:03;;;;;;;10.52;5.78;;;10.10;92.60;;;;;;4952774;28;20031;-67
2022/03/20 11:53:29;;;;;;;18.92;10.68;;;10.20;92.80;;;;;;4962070;28;20040;-67
2022/03/20 11:55:55;;;;;;;16.00;7.70;;;10.20;92.50;;;;;;4972562;28;20071;-68
2022/03/20 11:58:21;;;;;;;15.07;8.60;;;10.30;92.70;;;;;;4972289;28;20048;-67
2022/03/20 12:01:03;;;;;;;18.73;9.80;;;10.40;92.80;;;;;;4969620;28;20079;-67
2022/03/20 12:03:56;;;;;;;23.52;10.82;;;10.30;92.80;;;;;;4970166;28;20027;-67
2022/03/20 12:06:30;;;;;;;19.00;8.30;;;10.40;92.30;;;;;;4971745;28;20045;-66
2022/03/20 12:09:07;;;;;;;15.05;7.68;;;10.40;92.30;;;;;;4973230;28;20069;-68
2022/03/20 12:12:12;;;;;;;18.20;8.85;;;10.50;92.50;;;;;;4962588;28;20051;-68
2022/03/20 12:14:41;;;;;;;20.65;9.32;;;10.50;92.50;;;;;;4962440;28;20451;-67
2022/03/20 12:17:10;;;;;;;19.92;10.35;;;10.50;92.40;;;;;;4969348;28;20071;-69
2022/03/20 12:19:44;;;;;;;31.75;9.25;;;10.60;92.00;;;;;;4962039;28;20031;-68
2022/03/20 12:22:18;;;;;;;12.88;7.43;;;10.60;92.20;;;;;;4981423;28;20039;-68
2022/03/20 12:24:55;;;;;;;16.55;8.15;;;10.70;92.50;;;;;;4968324;28;20467;-67
2022/03/20 12:27:23;;;;;;;22.80;11.38;;;10.80;92.60;;;;;;4960187;28;20376;-68
2022/03/20 12:29:49;;;;;;;27.00;11.57;;;10.80;92.20;;;;;;4963034;28;20027;-68
2022/03/20 12:32:17;;;;;;;18.02;6.47;;;10.80;91.70;;;;;;4957913;28;20110;-67
2022/03/20 12:35:04;;;;;;;15.85;7.28;;;10.90;92.10;;;;;;4960160;28;20023;-68
2022/03/20 12:37:30;;;;;;;13.48;7.25;;;10.90;92.20;;;;;;4958958;28;20038;-67
2022/03/20 12:40:02;;;;;;;16.55;8.27;;;11.00;91.90;;;;;;4944713;28;20486;-67
2022/03/20 12:42:33;;;;;;;23.25;11.75;;;11.00;91.70;;;;;;4952236;28;20153;-68
2022/03/20 12:45:00;;;;;;;26.83;11.75;;;11.10;91.20;;;;;;4947350;28;20034;-68
2022/03/20 12:47:28;;;;;;;14.02;6.97;;;11.10;91.10;;;;;;4950502;28;20035;-68
2022/03/20 12:50:07;;;;;;;19.20;7.13;;;11.20;91.30;;;;;;4960666;28;20057;-67
2022/03/20 12:52:34;;;;;;;16.65;8.20;;;11.30;90.80;;;;;;4950074;28;20118;-70
2022/03/20 12:55:07;;;;;;;18.67;8.88;;;11.30;91.20;;;;;;4934955;28;20051;-77
2022/03/20 12:57:41;;;;;;;19.63;8.63;;;11.30;91.20;;;;;;4938850;28;20071;-67
2022/03/20 13:00:18;;;;;;;19.83;9.10;;;11.40;91.80;;;;;;4944735;28;20509;-68
2022/03/20 13:03:00;;;;;;;14.15;8.00;;;11.40;91.60;;;;;;4944833;28;20047;-68
2022/03/20 13:05:28;;;;;;;23.13;10.93;;;11.40;90.80;;;;;;4950861;28;20035;-68
2022/03/20 13:07:54;;;;;;;13.93;6.28;;;11.50;90.60;;;;;;4950641;28;20853;-68
2022/03/20 13:10:21;;;;;;;17.40;9.52;;;11.50;90.80;;;;;;4943317;28;20059;-68
2022/03/20 13:12:52;;;;;;;28.10;13.48;;;11.50;90.10;;;;;;4934155;28;20043;-68
2022/03/20 13:15:27;;;;;;;17.23;8.30;;;11.60;89.50;;;;;;4949654;28;20028;-68
2022/03/20 13:17:53;;;;;;;21.38;10.57;;;11.70;90.30;;;;;;4985453;28;20398;-67
2022/03/20 13:20:23;;;;;;;21.67;12.18;;;11.70;90.60;;;;;;4950636;28;20065;-68
2022/03/20 13:22:49;;;;;;;29.58;16.10;;;11.80;88.10;;;;;;4953813;28;20413;-68
2022/03/20 13:25:17;;;;;;;24.05;10.02;;;11.80;86.70;;;;;;4938115;28;20085;-68